Ax323189glimfeather — 323189 — position and weather

sailwx.info

Track history (hours):
 
Tides and Currents Weather Stations Pressure Air Temp Water Temp Dewpoint Dewpoint Depression Visibility Wind Speed Wind Dir Waves Ship Positions

Ax323189glimfeather

Last reported at 2018-Jul-18 18:56 UTC. Time now 2018-Jul-18 22:12 UTC.
Position N 49°19' W 123°12'.

Length 11 m.

Type: Pleasure craft. MMSI: 338051951.

Date/timePositionNaut miles runAvg speedWind from/ knotsBaromVisibWave heightAir tempDewpointWater temp
2018-Jul-18 18:56N 49°19' W 123°12'4 7.7
2018-Jul-18 18:27N 49°18' W 123°06'3 7.7
2018-Jul-18 18:00N 49°18' W 123°01'4 8.7
2018-Jul-18 17:30N 49°19' W 122°55'0 0.7
2018-Jul-18 17:00N 49°19' W 122°55'0 0.0
2018-Jul-18 16:23N 49°19' W 122°55'0 0.0
2018-Jul-18 15:58N 49°19' W 122°55'0 0.0
2018-Jul-18 15:23N 49°19' W 122°55'0 0.0
2018-Jul-18 15:00N 49°19' W 122°55'0 0.0
2018-Jul-18 14:17N 49°19' W 122°55'0 0.0
2018-Jul-18 13:30N 49°19' W 122°55'0 0.0
2018-Jul-18 12:59N 49°19' W 122°55'0 0.0
2018-Jul-18 12:29N 49°19' W 122°55'0 0.0
2018-Jul-18 11:59N 49°19' W 122°55'0 0.0
2018-Jul-18 11:27N 49°19' W 122°55'0 0.0
2018-Jul-18 10:25N 49°19' W 122°55'0 0.0
2018-Jul-18 10:00N 49°19' W 122°55'0 0.0
2018-Jul-18 09:29N 49°19' W 122°55'0 0.0
2018-Jul-18 08:59N 49°19' W 122°55'0 0.0
2018-Jul-18 08:27N 49°19' W 122°55'0 0.0
2018-Jul-18 06:57N 49°19' W 122°55'0 0.0
2018-Jul-18 06:20N 49°19' W 122°55'0 0.0
2018-Jul-18 06:00N 49°19' W 122°55'0 0.0
2018-Jul-18 05:28N 49°19' W 122°55'0 0.0
2018-Jul-18 03:36N 49°19' W 122°55'0 0.0
2018-Jul-18 03:13N 49°19' W 122°55'0 0.0
2018-Jul-18 01:34N 49°19' W 122°55'0 0.1
2018-Jul-18 01:27N 49°19' W 122°55'0 0.0
2018-Jul-18 00:58N 49°19' W 122°55'0 0.0
2018-Jul-18 00:30N 49°19' W 122°55'0 0.0
2018-Jul-17 23:59N 49°19' W 122°55'0 0.0
2018-Jul-17 23:26N 49°19' W 122°55'0 0.0
2018-Jul-17 22:53N 49°19' W 122°55'0 0.0
2018-Jul-17 22:30N 49°19' W 122°55'0 0.0
2018-Jul-17 22:00N 49°19' W 122°55'0 0.0
2018-Jul-17 21:29N 49°19' W 122°55'0 0.0
2018-Jul-17 20:47N 49°19' W 122°55'0 0.0
2018-Jul-17 20:29N 49°19' W 122°55'0 0.0
2018-Jul-17 19:56N 49°19' W 122°55'0 0.0
2018-Jul-17 19:30N 49°19' W 122°55'0 0.0
2018-Jul-17 18:56N 49°19' W 122°55'0 0.0
2018-Jul-17 18:30N 49°19' W 122°55'0 0.0
2018-Jul-17 17:57N 49°19' W 122°55'0 0.0
2018-Jul-17 17:30N 49°19' W 122°55'0 0.1
2018-Jul-17 16:57N 49°19' W 122°55'1 0.5
2018-Jul-17 15:54N 49°20' W 122°55'6 6.0
2018-Jul-17 14:56N 49°18' W 123°03'4 0.1
2018-Jul-15 22:31N 49°16' W 123°08'0 0.0
2018-Jul-15 22:23N 49°16' W 123°08'0 0.0
2018-Jul-15 22:00N 49°16' W 123°08'0 0.0
2018-Jul-15 21:30N 49°16' W 123°08'7 1.4
2018-Jul-15 16:34N 49°15' W 123°18'1 3.8
2018-Jul-15 16:16N 49°13' W 123°18'1 4.2
2018-Jul-15 16:00N 49°12' W 123°18'4 4.4
2018-Jul-15 15:07N 49°08' W 123°19'36 1.5
2018-Jul-14 15:13N 48°42' W 122°43'1 5.7
2018-Jul-14 14:57N 48°41' W 122°41'3 6.0
2018-Jul-14 14:30N 48°38' W 122°40'7 6.7
2018-Jul-14 13:29N 48°32' W 122°34'2 4.8
2018-Jul-14 13:00N 48°31' W 122°36'0 0.0
2018-Jul-14 12:30N 48°31' W 122°36'0 0.0
2018-Jul-14 12:01N 48°31' W 122°36'0 0.0
2018-Jul-14 11:29N 48°31' W 122°36'0 0.0
2018-Jul-14 11:00N 48°31' W 122°36'0 0.0
2018-Jul-14 10:08N 48°31' W 122°36'0 0.0
2018-Jul-14 10:00N 48°31' W 122°36'0 0.0
2018-Jul-14 09:30N 48°31' W 122°36'0 0.0
2018-Jul-14 09:00N 48°31' W 122°36'0 0.0
2018-Jul-14 08:30N 48°31' W 122°36'0 0.0
2018-Jul-14 08:00N 48°31' W 122°36'0 0.0
2018-Jul-14 07:30N 48°31' W 122°36'0 0.0
2018-Jul-14 07:00N 48°31' W 122°36'0 0.0
2018-Jul-14 06:08N 48°31' W 122°36'0 0.0
2018-Jul-14 06:00N 48°31' W 122°36'0 0.0
2018-Jul-14 05:31N 48°31' W 122°36'0 0.0
2018-Jul-14 04:59N 48°31' W 122°36'0 0.0
2018-Jul-14 04:30N 48°31' W 122°36'0 0.0
2018-Jul-14 04:00N 48°31' W 122°36'0 0.0
2018-Jul-14 03:30N 48°31' W 122°36'0 0.0
2018-Jul-14 03:00N 48°31' W 122°36'0 0.0
2018-Jul-14 02:29N 48°31' W 122°36'0 0.0
2018-Jul-14 02:00N 48°31' W 122°36'0 0.0
2018-Jul-14 01:30N 48°31' W 122°36'0 0.0
2018-Jul-14 01:00N 48°31' W 122°36'0 0.0
2018-Jul-14 00:30N 48°31' W 122°36'0 0.0
2018-Jul-14 00:01N 48°31' W 122°36'0 0.0
2018-Jul-13 23:30N 48°31' W 122°36'0 0.0
2018-Jul-13 23:00N 48°31' W 122°36'0 0.0
2018-Jul-13 22:30N 48°31' W 122°36'0 0.0
2018-Jul-13 22:00N 48°31' W 122°36'0 0.0
2018-Jul-13 21:29N 48°31' W 122°36'0 0.0
2018-Jul-13 21:00N 48°31' W 122°36'0 0.0
2018-Jul-13 20:30N 48°31' W 122°36'0 0.0
2018-Jul-13 20:00N 48°31' W 122°36'0 0.0
2018-Jul-13 19:30N 48°31' W 122°36'0 0.0
2018-Jul-13 19:00N 48°31' W 122°36'0 0.0
2018-Jul-13 18:30N 48°31' W 122°36'0 0.0
2018-Jul-13 17:59N 48°31' W 122°36'  
Track history (hours):
 
Tides and Currents Weather Stations Pressure Air Temp Water Temp Dewpoint Dewpoint Depression Visibility Wind Speed Wind Dir Waves Ship Positions

Ax323189glimfeather

Last reported at 2018-Jul-18 18:56 UTC. Time now 2018-Jul-18 22:12 UTC.
Position N 49°19' W 123°12'.

Length 11 m.

Type: Pleasure craft. MMSI: 338051951.

Date/timePositionNaut miles runAvg speedWind from/ knotsBaromVisibWave heightAir tempDewpointWater temp
2018-Jul-18 18:56N 49°19' W 123°12'4 7.7
2018-Jul-18 18:27N 49°18' W 123°06'3 7.7
2018-Jul-18 18:00N 49°18' W 123°01'4 8.7
2018-Jul-18 17:30N 49°19' W 122°55'0 0.7
2018-Jul-18 17:00N 49°19' W 122°55'0 0.0
2018-Jul-18 16:23N 49°19' W 122°55'0 0.0
2018-Jul-18 15:58N 49°19' W 122°55'0 0.0
2018-Jul-18 15:23N 49°19' W 122°55'0 0.0
2018-Jul-18 15:00N 49°19' W 122°55'0 0.0
2018-Jul-18 14:17N 49°19' W 122°55'0 0.0
2018-Jul-18 13:30N 49°19' W 122°55'0 0.0
2018-Jul-18 12:59N 49°19' W 122°55'0 0.0
2018-Jul-18 12:29N 49°19' W 122°55'0 0.0
2018-Jul-18 11:59N 49°19' W 122°55'0 0.0
2018-Jul-18 11:27N 49°19' W 122°55'0 0.0
2018-Jul-18 10:25N 49°19' W 122°55'0 0.0
2018-Jul-18 10:00N 49°19' W 122°55'0 0.0
2018-Jul-18 09:29N 49°19' W 122°55'0 0.0
2018-Jul-18 08:59N 49°19' W 122°55'0 0.0
2018-Jul-18 08:27N 49°19' W 122°55'0 0.0
2018-Jul-18 06:57N 49°19' W 122°55'0 0.0
2018-Jul-18 06:20N 49°19' W 122°55'0 0.0
2018-Jul-18 06:00N 49°19' W 122°55'0 0.0
2018-Jul-18 05:28N 49°19' W 122°55'0 0.0
2018-Jul-18 03:36N 49°19' W 122°55'0 0.0
2018-Jul-18 03:13N 49°19' W 122°55'0 0.0
2018-Jul-18 01:34N 49°19' W 122°55'0 0.1
2018-Jul-18 01:27N 49°19' W 122°55'0 0.0
2018-Jul-18 00:58N 49°19' W 122°55'0 0.0
2018-Jul-18 00:30N 49°19' W 122°55'0 0.0
2018-Jul-17 23:59N 49°19' W 122°55'0 0.0
2018-Jul-17 23:26N 49°19' W 122°55'0 0.0
2018-Jul-17 22:53N 49°19' W 122°55'0 0.0
2018-Jul-17 22:30N 49°19' W 122°55'0 0.0
2018-Jul-17 22:00N 49°19' W 122°55'0 0.0
2018-Jul-17 21:29N 49°19' W 122°55'0 0.0
2018-Jul-17 20:47N 49°19' W 122°55'0 0.0
2018-Jul-17 20:29N 49°19' W 122°55'0 0.0
2018-Jul-17 19:56N 49°19' W 122°55'0 0.0
2018-Jul-17 19:30N 49°19' W 122°55'0 0.0
2018-Jul-17 18:56N 49°19' W 122°55'0 0.0
2018-Jul-17 18:30N 49°19' W 122°55'0 0.0
2018-Jul-17 17:57N 49°19' W 122°55'0 0.0
2018-Jul-17 17:30N 49°19' W 122°55'0 0.1
2018-Jul-17 16:57N 49°19' W 122°55'1 0.5
2018-Jul-17 15:54N 49°20' W 122°55'6 6.0
2018-Jul-17 14:56N 49°18' W 123°03'4 0.1
2018-Jul-15 22:31N 49°16' W 123°08'0 0.0
2018-Jul-15 22:23N 49°16' W 123°08'0 0.0
2018-Jul-15 22:00N 49°16' W 123°08'0 0.0
2018-Jul-15 21:30N 49°16' W 123°08'7 1.4
2018-Jul-15 16:34N 49°15' W 123°18'1 3.8
2018-Jul-15 16:16N 49°13' W 123°18'1 4.2
2018-Jul-15 16:00N 49°12' W 123°18'4 4.4
2018-Jul-15 15:07N 49°08' W 123°19'36 1.5
2018-Jul-14 15:13N 48°42' W 122°43'1 5.7
2018-Jul-14 14:57N 48°41' W 122°41'3 6.0
2018-Jul-14 14:30N 48°38' W 122°40'7 6.7
2018-Jul-14 13:29N 48°32' W 122°34'2 4.8
2018-Jul-14 13:00N 48°31' W 122°36'0 0.0
2018-Jul-14 12:30N 48°31' W 122°36'0 0.0
2018-Jul-14 12:01N 48°31' W 122°36'0 0.0
2018-Jul-14 11:29N 48°31' W 122°36'0 0.0
2018-Jul-14 11:00N 48°31' W 122°36'0 0.0
2018-Jul-14 10:08N 48°31' W 122°36'0 0.0
2018-Jul-14 10:00N 48°31' W 122°36'0 0.0
2018-Jul-14 09:30N 48°31' W 122°36'0 0.0
2018-Jul-14 09:00N 48°31' W 122°36'0 0.0
2018-Jul-14 08:30N 48°31' W 122°36'0 0.0
2018-Jul-14 08:00N 48°31' W 122°36'0 0.0
2018-Jul-14 07:30N 48°31' W 122°36'0 0.0
2018-Jul-14 07:00N 48°31' W 122°36'0 0.0
2018-Jul-14 06:08N 48°31' W 122°36'0 0.0
2018-Jul-14 06:00N 48°31' W 122°36'0 0.0
2018-Jul-14 05:31N 48°31' W 122°36'0 0.0
2018-Jul-14 04:59N 48°31' W 122°36'0 0.0
2018-Jul-14 04:30N 48°31' W 122°36'0 0.0
2018-Jul-14 04:00N 48°31' W 122°36'0 0.0
2018-Jul-14 03:30N 48°31' W 122°36'0 0.0
2018-Jul-14 03:00N 48°31' W 122°36'0 0.0
2018-Jul-14 02:29N 48°31' W 122°36'0 0.0
2018-Jul-14 02:00N 48°31' W 122°36'0 0.0
2018-Jul-14 01:30N 48°31' W 122°36'0 0.0
2018-Jul-14 01:00N 48°31' W 122°36'0 0.0
2018-Jul-14 00:30N 48°31' W 122°36'0 0.0
2018-Jul-14 00:01N 48°31' W 122°36'0 0.0
2018-Jul-13 23:30N 48°31' W 122°36'0 0.0
2018-Jul-13 23:00N 48°31' W 122°36'0 0.0
2018-Jul-13 22:30N 48°31' W 122°36'0 0.0
2018-Jul-13 22:00N 48°31' W 122°36'0 0.0
2018-Jul-13 21:29N 48°31' W 122°36'0 0.0
2018-Jul-13 21:00N 48°31' W 122°36'0 0.0
2018-Jul-13 20:30N 48°31' W 122°36'0 0.0
2018-Jul-13 20:00N 48°31' W 122°36'0 0.0
2018-Jul-13 19:30N 48°31' W 122°36'0 0.0
2018-Jul-13 19:00N 48°31' W 122°36'0 0.0
2018-Jul-13 18:30N 48°31' W 122°36'0 0.0
2018-Jul-13 17:59N 48°31' W 122°36'  

Dump ship's entire track history